createdAt,value
2019-05-15T00:01:42.879Z,6.60
2019-05-15T00:06:34.627Z,5.80
2019-05-15T00:11:25.525Z,5.80
2019-05-15T00:16:18.011Z,5.50
2019-05-15T00:21:09.237Z,5.30
2019-05-15T00:25:58.596Z,5.10
2019-05-15T00:30:49.261Z,5.50
2019-05-15T00:35:40.155Z,6.30
2019-05-15T00:40:31.808Z,5.80
2019-05-15T00:45:22.712Z,5.80
2019-05-15T00:50:14.362Z,5.10
2019-05-15T00:55:05.329Z,5.00
2019-05-15T00:59:56.243Z,4.80
2019-05-15T01:04:47.999Z,4.60
2019-05-15T01:09:38.615Z,4.40
2019-05-15T01:14:29.104Z,5.10
2019-05-15T01:19:20.013Z,5.60
2019-05-15T01:24:10.928Z,5.50
2019-05-15T01:29:01.830Z,5.10
2019-05-15T01:33:52.774Z,4.70
2019-05-15T01:38:43.684Z,4.40
2019-05-15T01:43:34.597Z,4.10
2019-05-15T01:48:25.549Z,3.90
2019-05-15T01:53:18.527Z,3.80
2019-05-15T01:58:09.135Z,5.00
2019-05-15T02:02:59.116Z,5.00
2019-05-15T02:07:50.024Z,4.90
2019-05-15T02:12:40.947Z,4.50
2019-05-15T02:17:31.852Z,4.10
2019-05-15T02:22:22.779Z,3.80
2019-05-15T02:27:13.681Z,3.60
2019-05-15T02:32:04.608Z,3.40
2019-05-15T02:36:55.537Z,3.20
2019-05-15T02:41:49.248Z,3.50
2019-05-15T02:46:39.241Z,4.40
2019-05-15T02:51:29.991Z,4.50
2019-05-15T02:56:20.271Z,4.10
2019-05-15T03:01:11.234Z,3.40
2019-05-15T03:06:02.188Z,3.40
2019-05-15T03:10:53.101Z,3.20
2019-05-15T03:15:44.022Z,3.00
2019-05-15T03:20:34.928Z,2.80
2019-05-15T03:25:25.828Z,2.70
2019-05-15T03:30:21.437Z,3.40
2019-05-15T03:35:13.190Z,4.10
2019-05-15T03:39:59.588Z,4.00
2019-05-15T03:44:50.281Z,3.60
2019-05-15T03:49:41.304Z,2.90
2019-05-15T03:54:32.963Z,2.70
2019-05-15T03:59:23.958Z,2.60
2019-05-15T04:04:18.751Z,2.30
2019-05-15T04:09:09.321Z,2.30
2019-05-15T04:13:59.381Z,2.20
2019-05-15T04:18:49.385Z,3.70
2019-05-15T04:23:40.106Z,3.60
2019-05-15T04:28:31.092Z,3.60
2019-05-15T04:33:21.996Z,3.20
2019-05-15T04:38:13.030Z,2.90
2019-05-15T04:43:04.231Z,2.70
2019-05-15T04:47:55.165Z,2.60
2019-05-15T04:52:46.104Z,2.50
2019-05-15T04:57:39.988Z,2.50
2019-05-15T05:02:32.112Z,2.40
2019-05-15T05:07:19.659Z,3.30
2019-05-15T05:12:10.663Z,4.10
2019-05-15T05:17:01.572Z,4.10
2019-05-15T05:21:52.511Z,4.00
2019-05-15T05:26:43.420Z,3.80
2019-05-15T05:31:34.316Z,3.70
2019-05-15T05:36:27.575Z,3.60
2019-05-15T05:41:16.174Z,3.70
2019-05-15T05:46:09.178Z,3.70
2019-05-15T05:50:58.475Z,3.80
2019-05-15T05:55:52.924Z,5.40
2019-05-15T06:00:41.568Z,5.40
2019-05-15T06:05:32.568Z,5.40
2019-05-15T06:10:23.557Z,5.20
2019-05-15T06:15:14.460Z,5.10
2019-05-15T06:20:05.398Z,5.00
2019-05-15T06:24:57.900Z,5.00
2019-05-15T06:29:48.497Z,5.30
2019-05-15T06:34:39.550Z,5.20
2019-05-15T06:39:30.664Z,5.50
2019-05-15T06:44:21.600Z,6.60
2019-05-15T06:49:12.514Z,7.20
2019-05-15T06:54:03.422Z,7.20
2019-05-15T06:58:54.366Z,7.20
2019-05-15T07:03:52.312Z,7.20
2019-05-15T07:08:43.273Z,7.20
2019-05-15T07:13:34.221Z,7.30
2019-05-15T07:18:28.170Z,7.70
2019-05-15T07:23:18.549Z,8.70
2019-05-15T07:28:08.888Z,8.70
2019-05-15T07:32:59.599Z,9.10
2019-05-15T07:37:50.498Z,9.10
2019-05-15T07:42:41.574Z,9.10
2019-05-15T07:47:33.235Z,9.30
2019-05-15T07:52:24.176Z,9.30
2019-05-15T07:57:15.101Z,9.50
2019-05-15T08:02:08.294Z,9.60
2019-05-15T08:06:59.107Z,11.20
2019-05-15T08:11:48.895Z,11.20
2019-05-15T08:16:40.534Z,11.10
2019-05-15T08:21:31.438Z,11.10
2019-05-15T08:26:22.330Z,11.00
2019-05-15T08:31:13.307Z,11.00
2019-05-15T08:36:04.319Z,11.10
2019-05-15T08:40:55.226Z,11.30
2019-05-15T08:45:46.133Z,12.10
2019-05-15T08:50:39.032Z,12.40
2019-05-15T08:55:28.209Z,12.40
2019-05-15T09:00:18.954Z,12.20
2019-05-15T09:05:09.888Z,12.10
2019-05-15T09:10:00.808Z,12.10
2019-05-15T09:14:51.732Z,12.10
2019-05-15T09:19:42.647Z,12.70
2019-05-15T09:24:33.553Z,13.40
2019-05-15T09:29:24.464Z,13.40
2019-05-15T09:34:15.453Z,13.20
2019-05-15T09:39:08.627Z,13.20
2019-05-15T09:43:57.914Z,13.10
2019-05-15T09:48:51.813Z,13.80
2019-05-15T09:53:39.891Z,13.80
2019-05-15T09:58:30.826Z,14.40
2019-05-15T10:03:21.756Z,14.40
2019-05-15T10:08:12.688Z,14.20
2019-05-15T10:13:04.432Z,14.10
2019-05-15T10:17:55.341Z,14.10
2019-05-15T10:22:48.280Z,14.30
2019-05-15T10:27:39.850Z,15.30
2019-05-15T10:32:29.197Z,15.30
2019-05-15T10:37:19.854Z,15.20
2019-05-15T10:42:10.750Z,15.00
2019-05-15T10:47:01.655Z,15.00
2019-05-15T10:51:52.555Z,14.90
2019-05-15T10:56:43.477Z,15.60
2019-05-15T11:01:34.406Z,16.10
2019-05-15T11:06:25.316Z,15.90
2019-05-15T11:11:18.198Z,15.60
2019-05-15T11:16:07.174Z,15.40
2019-05-15T11:20:59.321Z,15.30
2019-05-15T11:25:49.116Z,15.80
2019-05-15T11:30:40.028Z,16.30
2019-05-15T11:35:30.937Z,16.10
2019-05-15T11:40:21.951Z,15.90
2019-05-15T11:45:12.873Z,15.70
2019-05-15T11:50:03.840Z,15.60
2019-05-15T11:54:55.483Z,16.60
2019-05-15T11:59:54.794Z,16.60
2019-05-15T12:04:38.378Z,16.50
2019-05-15T12:09:28.457Z,16.30
2019-05-15T12:14:20.141Z,16.00
2019-05-15T12:24:03.534Z,17.10
2019-05-15T12:28:54.438Z,17.10
2019-05-15T12:33:45.347Z,17.00
2019-05-15T12:38:39.651Z,16.50
2019-05-15T13:02:51.691Z,17.30
2019-05-15T13:07:42.612Z,16.90
2019-05-15T13:12:33.534Z,16.60
2019-05-15T13:17:24.473Z,16.40
2019-05-15T13:22:18.125Z,16.50
2019-05-15T13:27:07.785Z,17.20
2019-05-15T13:31:58.409Z,17.20
2019-05-15T13:36:48.679Z,16.80
2019-05-15T13:41:39.329Z,16.50
2019-05-15T13:46:32.817Z,16.20
2019-05-15T13:51:21.182Z,16.10
2019-05-15T13:56:12.093Z,16.70
2019-05-15T14:01:03.046Z,17.10
2019-05-15T14:05:54.715Z,16.50
2019-05-15T14:10:45.629Z,16.50
2019-05-15T14:15:38.352Z,16.20
2019-05-15T14:20:27.589Z,16.00
2019-05-15T14:25:18.555Z,16.30
2019-05-15T14:30:09.462Z,17.00
2019-05-15T14:35:00.386Z,16.90
2019-05-15T14:39:52.287Z,16.50
2019-05-15T14:44:42.270Z,16.10
2019-05-15T14:49:34.953Z,15.80
2019-05-15T14:54:24.183Z,15.90
2019-05-15T14:59:15.834Z,16.50
2019-05-15T15:04:08.954Z,16.00
2019-05-15T15:08:59.289Z,16.00
2019-05-15T15:13:50.138Z,15.20
2019-05-15T15:18:41.069Z,15.20
2019-05-15T15:23:32.068Z,15.00
2019-05-15T15:28:22.992Z,15.60
2019-05-15T15:33:13.913Z,15.90
2019-05-15T15:38:04.839Z,15.60
2019-05-15T15:42:57.893Z,15.20
2019-05-15T15:47:48.130Z,14.90
2019-05-15T15:52:38.442Z,14.60
2019-05-15T15:57:29.337Z,15.60
2019-05-15T16:02:20.255Z,15.60
2019-05-15T16:07:11.256Z,15.50
2019-05-15T16:12:02.165Z,15.10
2019-05-15T16:16:53.112Z,14.70
2019-05-15T16:21:44.033Z,14.50
2019-05-15T16:26:34.938Z,14.80
2019-05-15T16:31:27.785Z,15.50
2019-05-15T16:36:18.294Z,15.30
2019-05-15T16:41:09.060Z,14.90
2019-05-15T16:45:59.439Z,14.20
2019-05-15T16:50:50.564Z,14.20
2019-05-15T16:55:41.496Z,14.30
2019-05-15T17:00:32.440Z,15.10
2019-05-15T17:05:23.506Z,15.00
2019-05-15T17:10:14.414Z,14.60
2019-05-15T17:15:08.320Z,13.90
2019-05-15T17:19:57.934Z,13.80
2019-05-15T17:24:48.831Z,13.60
2019-05-15T17:29:39.037Z,13.90
2019-05-15T17:34:29.956Z,14.60
2019-05-15T17:39:33.805Z,14.50
2019-05-15T17:44:12.148Z,14.00
2019-05-15T17:49:08.840Z,13.30
2019-05-15T17:53:55.580Z,13.20
2019-05-15T17:58:48.646Z,13.20
2019-05-15T18:03:39.235Z,14.00
2019-05-15T18:08:29.145Z,13.60
2019-05-15T18:13:20.093Z,13.60
2019-05-15T18:18:11.008Z,13.20
2019-05-15T18:23:01.970Z,12.80
2019-05-15T18:27:52.884Z,12.50
2019-05-15T18:32:43.873Z,13.20
2019-05-15T18:37:35.658Z,13.20
2019-05-15T18:42:29.242Z,12.80
2019-05-15T18:47:18.881Z,12.80
2019-05-15T18:52:09.178Z,12.40
2019-05-15T18:57:00.093Z,12.10
2019-05-15T19:01:51.046Z,12.10
2019-05-15T19:06:41.960Z,13.00
2019-05-15T19:11:32.886Z,12.90
2019-05-15T19:16:23.790Z,12.50
2019-05-15T19:21:14.705Z,12.10
2019-05-15T19:26:05.694Z,11.70
2019-05-15T19:30:58.564Z,11.50
2019-05-15T19:35:47.745Z,12.00
2019-05-15T19:40:39.074Z,12.50
2019-05-15T19:45:29.461Z,12.10
2019-05-15T19:50:20.373Z,11.70
2019-05-15T19:55:11.291Z,11.40
2019-05-15T20:00:02.208Z,11.10
2019-05-15T20:04:53.951Z,11.90
2019-05-15T20:09:44.901Z,11.80
2019-05-15T20:14:38.169Z,12.00
2019-05-15T20:19:28.725Z,11.30
2019-05-15T20:24:18.484Z,11.20
2019-05-15T20:29:09.426Z,11.00
2019-05-15T20:34:05.160Z,10.70
2019-05-15T20:38:51.298Z,10.60
2019-05-15T20:43:42.232Z,11.50
2019-05-15T20:48:33.149Z,11.70
2019-05-15T20:53:24.077Z,11.40
2019-05-15T20:58:14.989Z,11.00
2019-05-15T21:03:08.323Z,10.70
2019-05-15T21:07:56.852Z,10.50
2019-05-15T21:12:48.645Z,10.40
2019-05-15T21:17:39.669Z,11.20
2019-05-15T21:22:30.421Z,11.30
2019-05-15T21:27:24.080Z,11.20
2019-05-15T21:32:13.058Z,10.60
2019-05-15T21:37:03.993Z,10.60
2019-05-15T21:41:54.919Z,10.40
2019-05-15T21:46:48.115Z,10.30
2019-05-15T21:51:38.428Z,11.10
2019-05-15T21:56:28.033Z,11.50
2019-05-15T22:01:19.819Z,10.80
2019-05-15T22:06:10.445Z,10.90
2019-05-15T22:11:01.369Z,10.50
2019-05-15T22:15:52.274Z,10.30
2019-05-15T22:20:43.184Z,10.20
2019-05-15T22:25:34.121Z,10.60
2019-05-15T22:30:25.062Z,11.40
2019-05-15T22:35:18.065Z,11.10
2019-05-15T22:40:08.893Z,10.50
2019-05-15T22:44:58.588Z,10.50
2019-05-15T22:49:49.517Z,10.30
2019-05-15T22:54:40.444Z,10.10
2019-05-15T22:59:31.372Z,10.50
2019-05-15T23:04:22.294Z,11.40
2019-05-15T23:09:13.195Z,11.20
2019-05-15T23:14:04.101Z,10.70
2019-05-15T23:18:55.029Z,10.50
2019-05-15T23:23:48.769Z,10.00
2019-05-15T23:28:38.636Z,10.00
2019-05-15T23:33:28.585Z,10.20
2019-05-15T23:38:19.489Z,11.10
2019-05-15T23:43:11.124Z,10.80
2019-05-15T23:48:02.773Z,10.40
2019-05-15T23:52:54.412Z,10.20
2019-05-15T23:57:52.354Z,10.20
